sensor_id;sensor_type;location;lat;lon;timestamp;P1;durP1;ratioP1;P2;durP2;ratioP2
53927;SDS011;39837;47.630;18.822;2024-03-23T00:56:15;104.40;;;39.88;;
53927;SDS011;39837;47.630;18.822;2024-03-23T00:58:59;109.55;;;46.80;;
53927;SDS011;39837;47.630;18.822;2024-03-23T01:01:44;135.27;;;52.75;;
53927;SDS011;39837;47.630;18.822;2024-03-23T01:04:28;100.07;;;41.20;;
53927;SDS011;39837;47.630;18.822;2024-03-23T01:07:12;94.70;;;42.67;;
53927;SDS011;39837;47.630;18.822;2024-03-23T01:09:56;89.25;;;38.63;;
53927;SDS011;39837;47.630;18.822;2024-03-23T01:12:40;88.70;;;40.67;;
53927;SDS011;39837;47.630;18.822;2024-03-23T01:15:24;67.88;;;33.10;;
53927;SDS011;39837;47.630;18.822;2024-03-23T01:18:08;61.60;;;22.65;;
53927;SDS011;39837;47.630;18.822;2024-03-23T01:20:52;49.58;;;21.75;;
53927;SDS011;39837;47.630;18.822;2024-03-23T01:23:36;46.55;;;24.13;;
53927;SDS011;39837;47.630;18.822;2024-03-23T01:26:20;44.53;;;21.40;;
53927;SDS011;39837;47.630;18.822;2024-03-23T01:29:04;46.40;;;22.58;;
53927;SDS011;39837;47.630;18.822;2024-03-23T01:31:48;38.33;;;19.73;;
53927;SDS011;39837;47.630;18.822;2024-03-23T01:34:32;40.10;;;18.70;;
53927;SDS011;39837;47.630;18.822;2024-03-23T01:37:16;38.72;;;20.55;;
53927;SDS011;39837;47.630;18.822;2024-03-23T01:40:00;34.78;;;17.40;;
53927;SDS011;39837;47.630;18.822;2024-03-23T01:43:04;34.30;;;18.88;;
53927;SDS011;39837;47.630;18.822;2024-03-23T01:45:50;26.73;;;16.80;;
53927;SDS011;39837;47.630;18.822;2024-03-23T01:48:34;46.28;;;19.05;;
53927;SDS011;39837;47.630;18.822;2024-03-23T01:51:18;45.17;;;20.15;;
53927;SDS011;39837;47.630;18.822;2024-03-23T01:54:03;48.90;;;20.90;;
53927;SDS011;39837;47.630;18.822;2024-03-23T01:56:47;54.42;;;24.15;;
53927;SDS011;39837;47.630;18.822;2024-03-23T01:59:33;91.15;;;26.95;;
53927;SDS011;39837;47.630;18.822;2024-03-23T02:02:17;67.68;;;28.13;;
53927;SDS011;39837;47.630;18.822;2024-03-23T02:05:03;48.17;;;23.17;;
53927;SDS011;39837;47.630;18.822;2024-03-23T02:07:48;44.40;;;21.58;;
53927;SDS011;39837;47.630;18.822;2024-03-23T02:10:32;35.60;;;19.50;;
53927;SDS011;39837;47.630;18.822;2024-03-23T02:13:17;46.40;;;21.65;;
53927;SDS011;39837;47.630;18.822;2024-03-23T02:16:01;36.42;;;19.17;;
53927;SDS011;39837;47.630;18.822;2024-03-23T02:18:46;47.70;;;19.10;;
53927;SDS011;39837;47.630;18.822;2024-03-23T02:21:30;41.40;;;21.45;;
53927;SDS011;39837;47.630;18.822;2024-03-23T02:24:15;38.17;;;18.60;;
53927;SDS011;39837;47.630;18.822;2024-03-23T02:26:59;37.63;;;20.15;;
53927;SDS011;39837;47.630;18.822;2024-03-23T02:29:43;45.90;;;20.65;;
53927;SDS011;39837;47.630;18.822;2024-03-23T02:32:27;49.20;;;20.88;;
53927;SDS011;39837;47.630;18.822;2024-03-23T02:35:11;33.22;;;17.90;;
53927;SDS011;39837;47.630;18.822;2024-03-23T02:37:55;43.10;;;18.63;;
53927;SDS011;39837;47.630;18.822;2024-03-23T02:40:41;24.95;;;18.23;;
53927;SDS011;39837;47.630;18.822;2024-03-23T02:43:24;37.33;;;21.02;;
53927;SDS011;39837;47.630;18.822;2024-03-23T02:46:08;40.80;;;19.15;;
53927;SDS011;39837;47.630;18.822;2024-03-23T02:48:52;37.75;;;17.77;;
53927;SDS011;39837;47.630;18.822;2024-03-23T02:51:36;31.45;;;18.25;;
53927;SDS011;39837;47.630;18.822;2024-03-23T02:54:20;31.63;;;16.67;;
53927;SDS011;39837;47.630;18.822;2024-03-23T02:57:05;23.85;;;15.98;;
53927;SDS011;39837;47.630;18.822;2024-03-23T02:59:49;20.27;;;15.70;;
53927;SDS011;39837;47.630;18.822;2024-03-23T03:02:33;28.02;;;16.20;;
53927;SDS011;39837;47.630;18.822;2024-03-23T03:05:17;26.10;;;17.55;;
53927;SDS011;39837;47.630;18.822;2024-03-23T03:08:01;22.77;;;16.42;;
53927;SDS011;39837;47.630;18.822;2024-03-23T03:10:45;19.60;;;14.05;;
53927;SDS011;39837;47.630;18.822;2024-03-23T03:13:29;24.60;;;14.30;;
53927;SDS011;39837;47.630;18.822;2024-03-23T03:16:13;22.63;;;14.68;;
53927;SDS011;39837;47.630;18.822;2024-03-23T03:18:58;24.92;;;15.45;;
53927;SDS011;39837;47.630;18.822;2024-03-23T03:21:42;24.55;;;15.30;;
53927;SDS011;39837;47.630;18.822;2024-03-23T03:24:26;20.48;;;14.57;;
53927;SDS011;39837;47.630;18.822;2024-03-23T03:27:10;23.08;;;13.73;;
53927;SDS011;39837;47.630;18.822;2024-03-23T03:29:54;23.65;;;14.52;;
53927;SDS011;39837;47.630;18.822;2024-03-23T03:32:38;15.02;;;12.75;;
53927;SDS011;39837;47.630;18.822;2024-03-23T03:35:22;19.23;;;14.25;;
53927;SDS011;39837;47.630;18.822;2024-03-23T03:38:06;24.08;;;13.43;;
53927;SDS011;39837;47.630;18.822;2024-03-23T03:40:50;17.65;;;13.02;;
53927;SDS011;39837;47.630;18.822;2024-03-23T03:43:36;22.58;;;14.95;;
53927;SDS011;39837;47.630;18.822;2024-03-23T03:46:20;20.50;;;14.40;;
53927;SDS011;39837;47.630;18.822;2024-03-23T03:49:04;21.23;;;14.98;;
53927;SDS011;39837;47.630;18.822;2024-03-23T03:51:49;22.40;;;14.15;;
53927;SDS011;39837;47.630;18.822;2024-03-23T03:54:33;24.63;;;14.68;;
53927;SDS011;39837;47.630;18.822;2024-03-23T03:57:17;23.05;;;14.82;;
53927;SDS011;39837;47.630;18.822;2024-03-23T04:00:02;23.02;;;14.98;;
53927;SDS011;39837;47.630;18.822;2024-03-23T04:02:48;17.42;;;13.15;;
53927;SDS011;39837;47.630;18.822;2024-03-23T04:05:32;17.90;;;14.55;;
53927;SDS011;39837;47.630;18.822;2024-03-23T04:08:16;24.95;;;13.27;;
53927;SDS011;39837;47.630;18.822;2024-03-23T04:11:00;24.83;;;14.25;;
53927;SDS011;39837;47.630;18.822;2024-03-23T04:13:44;18.42;;;14.18;;
53927;SDS011;39837;47.630;18.822;2024-03-23T04:16:28;19.67;;;14.88;;
53927;SDS011;39837;47.630;18.822;2024-03-23T04:19:13;20.20;;;13.90;;
53927;SDS011;39837;47.630;18.822;2024-03-23T04:21:57;20.73;;;14.55;;
53927;SDS011;39837;47.630;18.822;2024-03-23T04:24:41;20.95;;;14.02;;
53927;SDS011;39837;47.630;18.822;2024-03-23T04:27:26;17.17;;;13.90;;
53927;SDS011;39837;47.630;18.822;2024-03-23T04:30:10;23.17;;;15.15;;
53927;SDS011;39837;47.630;18.822;2024-03-23T04:32:55;18.87;;;14.27;;
53927;SDS011;39837;47.630;18.822;2024-03-23T04:35:40;19.85;;;14.65;;
53927;SDS011;39837;47.630;18.822;2024-03-23T04:38:24;16.15;;;13.82;;
53927;SDS011;39837;47.630;18.822;2024-03-23T04:41:08;32.95;;;15.10;;
53927;SDS011;39837;47.630;18.822;2024-03-23T04:43:52;23.27;;;14.57;;
53927;SDS011;39837;47.630;18.822;2024-03-23T04:46:36;23.85;;;13.45;;
53927;SDS011;39837;47.630;18.822;2024-03-23T04:49:20;23.45;;;15.77;;
53927;SDS011;39837;47.630;18.822;2024-03-23T04:52:04;18.83;;;14.27;;
53927;SDS011;39837;47.630;18.822;2024-03-23T04:54:48;23.85;;;15.65;;
53927;SDS011;39837;47.630;18.822;2024-03-23T04:57:32;24.52;;;15.40;;
53927;SDS011;39837;47.630;18.822;2024-03-23T05:00:17;29.20;;;17.13;;
53927;SDS011;39837;47.630;18.822;2024-03-23T05:03:01;29.05;;;16.48;;
53927;SDS011;39837;47.630;18.822;2024-03-23T05:05:45;30.98;;;15.60;;
53927;SDS011;39837;47.630;18.822;2024-03-23T05:08:29;28.30;;;16.45;;
53927;SDS011;39837;47.630;18.822;2024-03-23T05:11:14;29.73;;;15.63;;
53927;SDS011;39837;47.630;18.822;2024-03-23T05:13:59;28.10;;;16.20;;
53927;SDS011;39837;47.630;18.822;2024-03-23T05:16:43;19.50;;;15.27;;
53927;SDS011;39837;47.630;18.822;2024-03-23T05:19:28;28.45;;;17.77;;
53927;SDS011;39837;47.630;18.822;2024-03-23T05:22:12;24.77;;;16.25;;
53927;SDS011;39837;47.630;18.822;2024-03-23T05:24:56;22.92;;;15.45;;
53927;SDS011;39837;47.630;18.822;2024-03-23T05:27:40;22.27;;;14.27;;
53927;SDS011;39837;47.630;18.822;2024-03-23T05:30:24;18.48;;;14.00;;
53927;SDS011;39837;47.630;18.822;2024-03-23T05:33:08;18.85;;;14.52;;
53927;SDS011;39837;47.630;18.822;2024-03-23T05:35:56;20.52;;;15.05;;
53927;SDS011;39837;47.630;18.822;2024-03-23T05:38:41;25.30;;;14.75;;
53927;SDS011;39837;47.630;18.822;2024-03-23T05:41:25;17.45;;;12.50;;
53927;SDS011;39837;47.630;18.822;2024-03-23T05:44:09;18.05;;;14.23;;
53927;SDS011;39837;47.630;18.822;2024-03-23T05:46:54;25.88;;;14.85;;
53927;SDS011;39837;47.630;18.822;2024-03-23T05:49:38;23.33;;;13.95;;
53927;SDS011;39837;47.630;18.822;2024-03-23T05:52:22;19.38;;;14.00;;
53927;SDS011;39837;47.630;18.822;2024-03-23T05:57:52;21.02;;;14.48;;
53927;SDS011;39837;47.630;18.822;2024-03-23T06:00:36;18.80;;;13.65;;
53927;SDS011;39837;47.630;18.822;2024-03-23T06:03:20;19.52;;;13.93;;
53927;SDS011;39837;47.630;18.822;2024-03-23T06:06:04;21.35;;;15.02;;
53927;SDS011;39837;47.630;18.822;2024-03-23T06:08:53;22.05;;;14.77;;
53927;SDS011;39837;47.630;18.822;2024-03-23T06:11:38;17.42;;;13.73;;
53927;SDS011;39837;47.630;18.822;2024-03-23T06:14:22;19.67;;;13.82;;
53927;SDS011;39837;47.630;18.822;2024-03-23T06:17:07;18.52;;;14.02;;
53927;SDS011;39837;47.630;18.822;2024-03-23T06:19:51;20.95;;;14.13;;
53927;SDS011;39837;47.630;18.822;2024-03-23T06:22:35;21.58;;;14.27;;
53927;SDS011;39837;47.630;18.822;2024-03-23T06:25:19;18.83;;;13.95;;
53927;SDS011;39837;47.630;18.822;2024-03-23T06:28:04;19.45;;;14.55;;
53927;SDS011;39837;47.630;18.822;2024-03-23T06:30:48;21.35;;;14.15;;
53927;SDS011;39837;47.630;18.822;2024-03-23T06:33:32;23.45;;;14.75;;
53927;SDS011;39837;47.630;18.822;2024-03-23T06:36:16;19.48;;;13.57;;
53927;SDS011;39837;47.630;18.822;2024-03-23T06:39:03;26.77;;;14.30;;
53927;SDS011;39837;47.630;18.822;2024-03-23T06:41:53;18.48;;;14.02;;
53927;SDS011;39837;47.630;18.822;2024-03-23T06:44:38;23.65;;;14.23;;
53927;SDS011;39837;47.630;18.822;2024-03-23T06:47:23;22.40;;;13.90;;
53927;SDS011;39837;47.630;18.822;2024-03-23T06:50:07;22.17;;;14.60;;
53927;SDS011;39837;47.630;18.822;2024-03-23T06:52:51;19.85;;;13.27;;
53927;SDS011;39837;47.630;18.822;2024-03-23T06:55:34;20.52;;;15.00;;
53927;SDS011;39837;47.630;18.822;2024-03-23T06:58:19;20.48;;;14.18;;
53927;SDS011;39837;47.630;18.822;2024-03-23T07:01:04;19.38;;;13.48;;
53927;SDS011;39837;47.630;18.822;2024-03-23T07:03:48;18.17;;;13.35;;
53927;SDS011;39837;47.630;18.822;2024-03-23T07:06:32;16.13;;;12.50;;
53927;SDS011;39837;47.630;18.822;2024-03-23T07:09:16;17.20;;;12.23;;
53927;SDS011;39837;47.630;18.822;2024-03-23T07:12:00;17.17;;;12.23;;
53927;SDS011;39837;47.630;18.822;2024-03-23T07:14:44;20.25;;;13.38;;
53927;SDS011;39837;47.630;18.822;2024-03-23T07:17:29;18.63;;;12.30;;
53927;SDS011;39837;47.630;18.822;2024-03-23T07:20:13;17.77;;;12.18;;
53927;SDS011;39837;47.630;18.822;2024-03-23T07:22:57;22.67;;;11.77;;
53927;SDS011;39837;47.630;18.822;2024-03-23T07:25:41;16.13;;;11.70;;
53927;SDS011;39837;47.630;18.822;2024-03-23T07:28:25;18.27;;;11.20;;
53927;SDS011;39837;47.630;18.822;2024-03-23T07:31:15;19.50;;;12.07;;
53927;SDS011;39837;47.630;18.822;2024-03-23T07:33:59;15.70;;;11.43;;
53927;SDS011;39837;47.630;18.822;2024-03-23T07:36:43;16.27;;;12.50;;
53927;SDS011;39837;47.630;18.822;2024-03-23T07:39:27;13.63;;;11.55;;
53927;SDS011;39837;47.630;18.822;2024-03-23T07:42:11;16.67;;;11.30;;
53927;SDS011;39837;47.630;18.822;2024-03-23T07:44:56;15.07;;;12.05;;
53927;SDS011;39837;47.630;18.822;2024-03-23T07:47:40;14.18;;;11.70;;
53927;SDS011;39837;47.630;18.822;2024-03-23T07:50:25;15.98;;;10.40;;
53927;SDS011;39837;47.630;18.822;2024-03-23T07:53:09;19.05;;;11.75;;
53927;SDS011;39837;47.630;18.822;2024-03-23T07:55:56;16.40;;;11.50;;
53927;SDS011;39837;47.630;18.822;2024-03-23T07:58:54;13.98;;;10.70;;
53927;SDS011;39837;47.630;18.822;2024-03-23T08:01:38;15.00;;;11.40;;
53927;SDS011;39837;47.630;18.822;2024-03-23T08:04:24;15.70;;;11.10;;
53927;SDS011;39837;47.630;18.822;2024-03-23T08:07:08;12.88;;;10.02;;
53927;SDS011;39837;47.630;18.822;2024-03-23T08:09:52;16.00;;;11.05;;
53927;SDS011;39837;47.630;18.822;2024-03-23T08:12:37;15.68;;;10.85;;
53927;SDS011;39837;47.630;18.822;2024-03-23T08:15:21;19.52;;;11.02;;
53927;SDS011;39837;47.630;18.822;2024-03-23T08:18:05;18.33;;;11.55;;
53927;SDS011;39837;47.630;18.822;2024-03-23T08:20:57;13.07;;;10.52;;
53927;SDS011;39837;47.630;18.822;2024-03-23T08:23:47;13.95;;;10.90;;
53927;SDS011;39837;47.630;18.822;2024-03-23T08:26:31;14.85;;;10.77;;
53927;SDS011;39837;47.630;18.822;2024-03-23T08:29:16;14.52;;;10.63;;
53927;SDS011;39837;47.630;18.822;2024-03-23T08:32:00;16.02;;;10.13;;
53927;SDS011;39837;47.630;18.822;2024-03-23T08:34:45;13.07;;;10.57;;
53927;SDS011;39837;47.630;18.822;2024-03-23T08:37:28;15.80;;;10.05;;
53927;SDS011;39837;47.630;18.822;2024-03-23T08:40:12;15.35;;;10.60;;
53927;SDS011;39837;47.630;18.822;2024-03-23T08:42:57;15.32;;;10.27;;
53927;SDS011;39837;47.630;18.822;2024-03-23T08:45:41;13.75;;;10.23;;
53927;SDS011;39837;47.630;18.822;2024-03-23T08:48:25;19.63;;;10.77;;
53927;SDS011;39837;47.630;18.822;2024-03-23T08:51:10;15.18;;;10.63;;
53927;SDS011;39837;47.630;18.822;2024-03-23T08:53:54;15.13;;;9.88;;
53927;SDS011;39837;47.630;18.822;2024-03-23T08:56:38;10.68;;;9.57;;
53927;SDS011;39837;47.630;18.822;2024-03-23T08:59:22;16.50;;;9.60;;
53927;SDS011;39837;47.630;18.822;2024-03-23T09:02:07;18.27;;;10.75;;
53927;SDS011;39837;47.630;18.822;2024-03-23T09:04:51;12.70;;;10.32;;
53927;SDS011;39837;47.630;18.822;2024-03-23T09:07:36;13.35;;;10.73;;
53927;SDS011;39837;47.630;18.822;2024-03-23T09:10:20;17.48;;;10.82;;
53927;SDS011;39837;47.630;18.822;2024-03-23T09:13:06;21.05;;;9.90;;
53927;SDS011;39837;47.630;18.822;2024-03-23T09:15:50;16.38;;;11.82;;
53927;SDS011;39837;47.630;18.822;2024-03-23T09:18:37;15.95;;;11.80;;
53927;SDS011;39837;47.630;18.822;2024-03-23T09:21:22;14.75;;;11.30;;
53927;SDS011;39837;47.630;18.822;2024-03-23T09:24:06;37.30;;;11.85;;
53927;SDS011;39837;47.630;18.822;2024-03-23T09:26:51;19.70;;;11.32;;
53927;SDS011;39837;47.630;18.822;2024-03-23T09:29:35;22.35;;;11.25;;
53927;SDS011;39837;47.630;18.822;2024-03-23T09:32:20;16.67;;;11.18;;
53927;SDS011;39837;47.630;18.822;2024-03-23T09:35:04;19.33;;;11.55;;
53927;SDS011;39837;47.630;18.822;2024-03-23T09:37:48;16.58;;;11.48;;
53927;SDS011;39837;47.630;18.822;2024-03-23T09:40:33;19.02;;;10.88;;
53927;SDS011;39837;47.630;18.822;2024-03-23T09:43:17;14.00;;;9.88;;
53927;SDS011;39837;47.630;18.822;2024-03-23T09:46:01;15.05;;;10.52;;
53927;SDS011;39837;47.630;18.822;2024-03-23T09:48:46;20.48;;;11.05;;
53927;SDS011;39837;47.630;18.822;2024-03-23T09:51:31;17.02;;;10.13;;
53927;SDS011;39837;47.630;18.822;2024-03-23T09:54:15;13.95;;;10.80;;
53927;SDS011;39837;47.630;18.822;2024-03-23T09:56:59;15.30;;;10.40;;
53927;SDS011;39837;47.630;18.822;2024-03-23T09:59:43;13.77;;;10.15;;
53927;SDS011;39837;47.630;18.822;2024-03-23T10:02:27;17.17;;;10.32;;
53927;SDS011;39837;47.630;18.822;2024-03-23T10:05:22;27.67;;;12.32;;
53927;SDS011;39837;47.630;18.822;2024-03-23T10:10:56;13.13;;;8.75;;
53927;SDS011;39837;47.630;18.822;2024-03-23T10:13:44;15.02;;;8.70;;
53927;SDS011;39837;47.630;18.822;2024-03-23T10:16:30;16.45;;;8.77;;
53927;SDS011;39837;47.630;18.822;2024-03-23T10:19:14;11.15;;;8.05;;
53927;SDS011;39837;47.630;18.822;2024-03-23T10:22:14;9.85;;;7.68;;
53927;SDS011;39837;47.630;18.822;2024-03-23T10:25:07;10.00;;;8.00;;
53927;SDS011;39837;47.630;18.822;2024-03-23T10:27:58;9.85;;;8.55;;
53927;SDS011;39837;47.630;18.822;2024-03-23T10:30:43;11.73;;;8.25;;
53927;SDS011;39837;47.630;18.822;2024-03-23T10:33:27;12.27;;;9.23;;
53927;SDS011;39837;47.630;18.822;2024-03-23T10:36:11;16.73;;;8.88;;
53927;SDS011;39837;47.630;18.822;2024-03-23T10:38:55;19.17;;;8.82;;
53927;SDS011;39837;47.630;18.822;2024-03-23T10:41:42;15.18;;;9.85;;
53927;SDS011;39837;47.630;18.822;2024-03-23T10:44:26;19.00;;;9.65;;
53927;SDS011;39837;47.630;18.822;2024-03-23T10:47:13;12.45;;;8.63;;
53927;SDS011;39837;47.630;18.822;2024-03-23T10:49:57;11.73;;;8.25;;
53927;SDS011;39837;47.630;18.822;2024-03-23T10:52:41;9.70;;;7.82;;
53927;SDS011;39837;47.630;18.822;2024-03-23T10:55:30;12.00;;;7.55;;
53927;SDS011;39837;47.630;18.822;2024-03-23T11:00:59;11.70;;;7.63;;
53927;SDS011;39837;47.630;18.822;2024-03-23T11:03:44;16.70;;;7.78;;
53927;SDS011;39837;47.630;18.822;2024-03-23T11:06:37;10.15;;;7.50;;
53927;SDS011;39837;47.630;18.822;2024-03-23T11:12:29;8.45;;;6.25;;
53927;SDS011;39837;47.630;18.822;2024-03-23T11:15:15;7.32;;;5.70;;
53927;SDS011;39837;47.630;18.822;2024-03-23T11:18:03;9.52;;;6.47;;
53927;SDS011;39837;47.630;18.822;2024-03-23T11:20:48;19.85;;;5.88;;
53927;SDS011;39837;47.630;18.822;2024-03-23T11:23:32;19.15;;;6.10;;
53927;SDS011;39837;47.630;18.822;2024-03-23T11:26:16;7.75;;;5.47;;
53927;SDS011;39837;47.630;18.822;2024-03-23T11:29:13;12.80;;;5.57;;
53927;SDS011;39837;47.630;18.822;2024-03-23T11:31:58;9.25;;;5.65;;
53927;SDS011;39837;47.630;18.822;2024-03-23T11:34:44;11.55;;;5.72;;
53927;SDS011;39837;47.630;18.822;2024-03-23T11:37:29;8.70;;;5.75;;
53927;SDS011;39837;47.630;18.822;2024-03-23T11:40:16;13.05;;;6.07;;
53927;SDS011;39837;47.630;18.822;2024-03-23T11:43:04;10.48;;;5.40;;
53927;SDS011;39837;47.630;18.822;2024-03-23T11:48:38;12.77;;;6.05;;
53927;SDS011;39837;47.630;18.822;2024-03-23T11:51:22;11.55;;;6.25;;
53927;SDS011;39837;47.630;18.822;2024-03-23T11:54:07;15.30;;;6.00;;
53927;SDS011;39837;47.630;18.822;2024-03-23T11:57:02;9.13;;;5.43;;
53927;SDS011;39837;47.630;18.822;2024-03-23T11:59:48;12.38;;;6.57;;
53927;SDS011;39837;47.630;18.822;2024-03-23T12:02:32;11.30;;;6.53;;
53927;SDS011;39837;47.630;18.822;2024-03-23T12:05:16;7.72;;;5.78;;
53927;SDS011;39837;47.630;18.822;2024-03-23T12:08:22;12.68;;;5.40;;
53927;SDS011;39837;47.630;18.822;2024-03-23T12:11:18;11.95;;;5.95;;
53927;SDS011;39837;47.630;18.822;2024-03-23T12:14:02;10.70;;;5.85;;
53927;SDS011;39837;47.630;18.822;2024-03-23T12:16:46;21.60;;;6.45;;
53927;SDS011;39837;47.630;18.822;2024-03-23T12:19:30;6.53;;;5.38;;
53927;SDS011;39837;47.630;18.822;2024-03-23T12:22:14;10.40;;;6.40;;
53927;SDS011;39837;47.630;18.822;2024-03-23T12:24:58;14.50;;;6.40;;
53927;SDS011;39837;47.630;18.822;2024-03-23T12:27:43;7.70;;;5.47;;
53927;SDS011;39837;47.630;18.822;2024-03-23T12:30:27;9.88;;;5.30;;
53927;SDS011;39837;47.630;18.822;2024-03-23T12:33:11;9.55;;;5.88;;
53927;SDS011;39837;47.630;18.822;2024-03-23T12:35:55;7.18;;;5.70;;
53927;SDS011;39837;47.630;18.822;2024-03-23T12:38:39;10.15;;;5.05;;
53927;SDS011;39837;47.630;18.822;2024-03-23T12:41:23;11.23;;;5.70;;
53927;SDS011;39837;47.630;18.822;2024-03-23T12:44:07;6.70;;;5.15;;
53927;SDS011;39837;47.630;18.822;2024-03-23T12:46:55;7.60;;;5.25;;
53927;SDS011;39837;47.630;18.822;2024-03-23T12:49:39;6.30;;;5.05;;
53927;SDS011;39837;47.630;18.822;2024-03-23T12:52:23;12.43;;;5.28;;
53927;SDS011;39837;47.630;18.822;2024-03-23T12:55:11;8.27;;;5.20;;
53927;SDS011;39837;47.630;18.822;2024-03-23T12:57:55;6.55;;;4.82;;
53927;SDS011;39837;47.630;18.822;2024-03-23T13:00:40;9.40;;;5.22;;
53927;SDS011;39837;47.630;18.822;2024-03-23T13:03:24;7.78;;;4.72;;
53927;SDS011;39837;47.630;18.822;2024-03-23T13:06:08;12.55;;;4.88;;
53927;SDS011;39837;47.630;18.822;2024-03-23T13:08:52;6.18;;;5.15;;
53927;SDS011;39837;47.630;18.822;2024-03-23T13:11:38;12.63;;;5.03;;
53927;SDS011;39837;47.630;18.822;2024-03-23T13:14:22;4.93;;;4.30;;
53927;SDS011;39837;47.630;18.822;2024-03-23T13:17:07;12.30;;;4.90;;
53927;SDS011;39837;47.630;18.822;2024-03-23T13:19:51;6.97;;;4.88;;
53927;SDS011;39837;47.630;18.822;2024-03-23T13:22:35;5.03;;;4.22;;
53927;SDS011;39837;47.630;18.822;2024-03-23T13:25:19;16.40;;;4.97;;
53927;SDS011;39837;47.630;18.822;2024-03-23T13:28:04;10.57;;;4.93;;
53927;SDS011;39837;47.630;18.822;2024-03-23T13:30:52;10.02;;;5.38;;
53927;SDS011;39837;47.630;18.822;2024-03-23T13:33:36;6.38;;;4.70;;
53927;SDS011;39837;47.630;18.822;2024-03-23T13:36:20;6.13;;;4.55;;
53927;SDS011;39837;47.630;18.822;2024-03-23T13:39:04;8.27;;;4.65;;
53927;SDS011;39837;47.630;18.822;2024-03-23T13:41:54;5.78;;;5.00;;
53927;SDS011;39837;47.630;18.822;2024-03-23T13:44:39;8.32;;;4.68;;
53927;SDS011;39837;47.630;18.822;2024-03-23T13:47:23;10.93;;;4.90;;
53927;SDS011;39837;47.630;18.822;2024-03-23T13:50:07;7.93;;;4.97;;
53927;SDS011;39837;47.630;18.822;2024-03-23T13:52:51;4.15;;;3.80;;
53927;SDS011;39837;47.630;18.822;2024-03-23T13:55:35;4.63;;;4.05;;
53927;SDS011;39837;47.630;18.822;2024-03-23T13:58:20;6.32;;;4.13;;
53927;SDS011;39837;47.630;18.822;2024-03-23T14:01:04;8.15;;;4.85;;
53927;SDS011;39837;47.630;18.822;2024-03-23T14:03:48;7.88;;;4.57;;
53927;SDS011;39837;47.630;18.822;2024-03-23T14:06:33;6.85;;;4.05;;
53927;SDS011;39837;47.630;18.822;2024-03-23T14:09:17;7.95;;;4.40;;
53927;SDS011;39837;47.630;18.822;2024-03-23T14:12:06;5.50;;;4.28;;
53927;SDS011;39837;47.630;18.822;2024-03-23T14:14:52;5.28;;;4.32;;
53927;SDS011;39837;47.630;18.822;2024-03-23T14:17:37;9.40;;;4.28;;
53927;SDS011;39837;47.630;18.822;2024-03-23T14:20:22;7.65;;;4.57;;
53927;SDS011;39837;47.630;18.822;2024-03-23T14:23:07;8.27;;;4.07;;
53927;SDS011;39837;47.630;18.822;2024-03-23T14:25:52;9.40;;;4.53;;
53927;SDS011;39837;47.630;18.822;2024-03-23T14:28:37;12.25;;;4.53;;
53927;SDS011;39837;47.630;18.822;2024-03-23T14:31:21;11.18;;;4.38;;
53927;SDS011;39837;47.630;18.822;2024-03-23T14:34:05;28.67;;;5.53;;
53927;SDS011;39837;47.630;18.822;2024-03-23T14:36:50;7.40;;;4.80;;
53927;SDS011;39837;47.630;18.822;2024-03-23T14:39:34;6.57;;;4.38;;
53927;SDS011;39837;47.630;18.822;2024-03-23T14:42:18;13.75;;;5.65;;
53927;SDS011;39837;47.630;18.822;2024-03-23T14:45:04;5.50;;;4.80;;
53927;SDS011;39837;47.630;18.822;2024-03-23T14:47:48;8.48;;;4.45;;
53927;SDS011;39837;47.630;18.822;2024-03-23T14:50:33;7.40;;;4.55;;
53927;SDS011;39837;47.630;18.822;2024-03-23T14:53:18;7.80;;;4.40;;
53927;SDS011;39837;47.630;18.822;2024-03-23T14:56:02;16.02;;;4.63;;
53927;SDS011;39837;47.630;18.822;2024-03-23T14:58:46;8.23;;;4.00;;
53927;SDS011;39837;47.630;18.822;2024-03-23T15:01:35;5.72;;;4.15;;
53927;SDS011;39837;47.630;18.822;2024-03-23T15:04:19;4.70;;;4.10;;
53927;SDS011;39837;47.630;18.822;2024-03-23T15:07:04;8.50;;;3.97;;
53927;SDS011;39837;47.630;18.822;2024-03-23T15:09:48;4.60;;;4.20;;
53927;SDS011;39837;47.630;18.822;2024-03-23T15:12:32;4.80;;;4.05;;
53927;SDS011;39837;47.630;18.822;2024-03-23T15:15:17;9.40;;;3.93;;
53927;SDS011;39837;47.630;18.822;2024-03-23T15:18:01;11.27;;;5.25;;
53927;SDS011;39837;47.630;18.822;2024-03-23T15:20:54;6.53;;;4.25;;
53927;SDS011;39837;47.630;18.822;2024-03-23T15:23:39;3.75;;;3.45;;
53927;SDS011;39837;47.630;18.822;2024-03-23T15:26:23;6.13;;;4.50;;
53927;SDS011;39837;47.630;18.822;2024-03-23T15:29:07;10.93;;;4.18;;
53927;SDS011;39837;47.630;18.822;2024-03-23T15:31:56;6.72;;;3.92;;
53927;SDS011;39837;47.630;18.822;2024-03-23T15:34:40;5.15;;;4.00;;
53927;SDS011;39837;47.630;18.822;2024-03-23T15:37:24;6.05;;;4.05;;
53927;SDS011;39837;47.630;18.822;2024-03-23T15:40:09;10.48;;;5.32;;
53927;SDS011;39837;47.630;18.822;2024-03-23T15:42:54;3.75;;;3.45;;
53927;SDS011;39837;47.630;18.822;2024-03-23T15:45:38;8.65;;;4.10;;
53927;SDS011;39837;47.630;18.822;2024-03-23T15:48:21;5.55;;;4.07;;
53927;SDS011;39837;47.630;18.822;2024-03-23T15:51:06;4.35;;;3.80;;
53927;SDS011;39837;47.630;18.822;2024-03-23T15:53:50;5.38;;;3.80;;
53927;SDS011;39837;47.630;18.822;2024-03-23T15:56:41;7.95;;;4.00;;
53927;SDS011;39837;47.630;18.822;2024-03-23T15:59:24;11.52;;;4.55;;
53927;SDS011;39837;47.630;18.822;2024-03-23T16:02:09;4.27;;;3.73;;
53927;SDS011;39837;47.630;18.822;2024-03-23T16:04:54;9.63;;;5.25;;
53927;SDS011;39837;47.630;18.822;2024-03-23T16:07:39;6.30;;;3.90;;
53927;SDS011;39837;47.630;18.822;2024-03-23T16:10:23;4.82;;;4.13;;
53927;SDS011;39837;47.630;18.822;2024-03-23T16:13:07;5.10;;;4.35;;
53927;SDS011;39837;47.630;18.822;2024-03-23T16:15:55;4.45;;;3.65;;
53927;SDS011;39837;47.630;18.822;2024-03-23T16:18:39;8.27;;;5.88;;
53927;SDS011;39837;47.630;18.822;2024-03-23T16:21:23;5.85;;;4.32;;
53927;SDS011;39837;47.630;18.822;2024-03-23T16:24:07;6.72;;;4.20;;
53927;SDS011;39837;47.630;18.822;2024-03-23T16:26:51;10.73;;;4.72;;
53927;SDS011;39837;47.630;18.822;2024-03-23T16:29:35;6.50;;;4.60;;
53927;SDS011;39837;47.630;18.822;2024-03-23T16:32:19;12.23;;;4.20;;
53927;SDS011;39837;47.630;18.822;2024-03-23T16:35:04;11.02;;;6.97;;
53927;SDS011;39837;47.630;18.822;2024-03-23T16:37:48;48.30;;;4.50;;
53927;SDS011;39837;47.630;18.822;2024-03-23T16:40:33;62.83;;;4.90;;
53927;SDS011;39837;47.630;18.822;2024-03-23T16:43:17;20.13;;;2.83;;
53927;SDS011;39837;47.630;18.822;2024-03-23T16:46:07;15.30;;;3.72;;
53927;SDS011;39837;47.630;18.822;2024-03-23T16:48:54;18.67;;;2.97;;
53927;SDS011;39837;47.630;18.822;2024-03-23T16:51:38;26.35;;;5.55;;
53927;SDS011;39837;47.630;18.822;2024-03-23T16:54:23;36.30;;;6.47;;
53927;SDS011;39837;47.630;18.822;2024-03-23T16:57:08;7.07;;;2.72;;
53927;SDS011;39837;47.630;18.822;2024-03-23T16:59:52;3.25;;;2.80;;
53927;SDS011;39837;47.630;18.822;2024-03-23T17:02:36;19.90;;;2.53;;
53927;SDS011;39837;47.630;18.822;2024-03-23T17:05:23;16.00;;;3.08;;
53927;SDS011;39837;47.630;18.822;2024-03-23T17:08:07;4.85;;;2.50;;
53927;SDS011;39837;47.630;18.822;2024-03-23T17:10:56;12.52;;;3.22;;